Time;durP1;ratioP1;P1;durP2;ratioP2;P2;SDS_P1;SDS_P2;PMS_P1;PMS_P2;Temp;Humidity;BMP_temperature;BMP_pressure;BME280_temperature;BME280_humidity;BME280_pressure;Samples;Min_cycle;Max_cycle;Signal;HPM_P1;HPM_P2
2023/12/18 00:04:28;;;;;;;;;;;;;;;19.71;36.14;97495.38;10515496;28;1973;-54
2023/12/18 00:09:28;;;;;;;;;;;;;;;19.70;36.08;97491.16;10496074;28;2063;-54
2023/12/18 00:14:29;;;;;;;;;;;;;;;19.70;36.05;97491.16;10511513;28;1936;-52
2023/12/18 00:19:29;;;;;;;;;;;;;;;19.66;35.98;97495.28;10518352;28;2671;-51
2023/12/18 00:24:29;;;;;;;;;;;;;;;19.63;35.93;97495.72;10508806;28;2116;-54
2023/12/18 00:29:29;;;;;;;;;;;;;;;19.62;36.08;97483.59;10511612;28;1893;-54
2023/12/18 00:34:30;;;;;;;;;;;;;;;19.58;36.07;97482.44;10502058;28;1973;-52
2023/12/18 00:39:30;;;;;;;;;;;;;;;19.57;36.09;97486.91;10505160;28;1961;-54
2023/12/18 00:44:30;;;;;;;;;;;;;;;19.57;35.86;97480.81;10495881;28;1888;-51
2023/12/18 00:49:32;;;;;;;;;;;;;;;19.53;36.09;97477.84;10514733;28;3091;-52
2023/12/18 00:54:32;;;;;;;;;;;;;;;19.53;36.04;97479.69;10511032;28;1917;-55
2023/12/18 00:59:32;;;;;;;;;;;;;;;19.48;35.83;97478.53;10517232;28;2048;-54
2023/12/18 01:04:32;;;;;;;;;;;;;;;19.47;35.98;97468.22;10518193;28;1925;-54
2023/12/18 01:09:33;;;;;;;;;;;;;;;19.44;35.85;97474.75;10510258;28;1943;-52
2023/12/18 01:14:33;;;;;;;;;;;;;;;19.41;35.95;97475.19;10510188;28;1945;-53
2023/12/18 01:19:34;;;;;;;;;;;;;;;19.38;36.04;97477.47;10514128;28;2130;-52
2023/12/18 01:24:34;;;;;;;;;;;;;;;19.37;35.68;97487.16;10512208;28;1986;-55
2023/12/18 01:29:38;;;;;;;;;;;;;;;19.34;36.01;97482.38;10508699;28;1908;-53
2023/12/18 01:34:38;;;;;;;;;;;;;;;19.33;35.99;97477.31;10510249;28;1940;-53
2023/12/18 01:39:38;;;;;;;;;;;;;;;19.29;36.01;97479.56;10502650;28;1906;-53
2023/12/18 01:44:38;;;;;;;;;;;;;;;19.26;36.15;97469.50;10501995;28;6194;-53
2023/12/18 01:49:39;;;;;;;;;;;;;;;19.26;36.15;97468.69;10502409;28;2013;-54
2023/12/18 01:54:39;;;;;;;;;;;;;;;19.24;36.11;97455.78;10504640;28;1921;-54
2023/12/18 01:59:39;;;;;;;;;;;;;;;19.19;36.12;97439.88;10494068;28;1906;-54
2023/12/18 02:04:40;;;;;;;;;;;;;;;19.19;35.86;97434.63;10479430;28;2036;-53
2023/12/18 02:09:41;;;;;;;;;;;;;;;19.18;35.94;97433.03;10511896;28;1913;-53
2023/12/18 02:14:42;;;;;;;;;;;;;;;19.13;35.96;97432.88;10508306;28;1947;-55
2023/12/18 02:19:42;;;;;;;;;;;;;;;19.14;35.78;97424.00;10493463;28;1917;-52
2023/12/18 02:24:42;;;;;;;;;;;;;;;19.10;35.97;97422.81;10515202;28;1873;-53
2023/12/18 02:29:42;;;;;;;;;;;;;;;19.07;35.99;97407.50;10514907;28;1946;-54
2023/12/18 02:34:43;;;;;;;;;;;;;;;19.06;35.92;97413.75;10509065;28;2052;-55
2023/12/18 02:39:43;;;;;;;;;;;;;;;19.07;35.98;97411.94;10516301;28;1935;-51
2023/12/18 02:44:46;;;;;;;;;;;;;;;19.04;35.71;97407.94;10486000;28;5022;-54
2023/12/18 02:49:46;;;;;;;;;;;;;;;19.01;35.95;97407.59;10507095;28;3059;-53
2023/12/18 02:54:46;;;;;;;;;;;;;;;18.99;35.86;97407.00;10522668;28;2056;-54
2023/12/18 02:59:47;;;;;;;;;;;;;;;18.98;35.93;97400.16;10515159;28;1995;-53
2023/12/18 03:04:47;;;;;;;;;;;;;;;18.95;35.95;97396.16;10518876;28;2072;-53
2023/12/18 03:09:47;;;;;;;;;;;;;;;18.93;35.82;97395.56;10495516;28;1964;-53
2023/12/18 03:14:47;;;;;;;;;;;;;;;18.92;36.01;97390.53;10519764;28;2103;-52
2023/12/18 03:19:48;;;;;;;;;;;;;;;18.89;35.90;97389.16;10510931;28;1892;-53
2023/12/18 03:24:48;;;;;;;;;;;;;;;18.86;36.01;97388.78;10514770;28;2079;-54
2023/12/18 03:29:48;;;;;;;;;;;;;;;18.85;35.93;97388.00;10516701;28;2138;-52
2023/12/18 03:34:48;;;;;;;;;;;;;;;18.84;35.96;97382.94;10509490;28;2005;-54
2023/12/18 03:39:49;;;;;;;;;;;;;;;18.82;35.89;97383.19;10509056;28;2270;-53
2023/12/18 03:44:49;;;;;;;;;;;;;;;18.79;35.96;97367.88;10518615;28;1914;-52
2023/12/18 03:49:49;;;;;;;;;;;;;;;18.79;35.69;97377.56;10509926;28;3180;-52
2023/12/18 03:54:49;;;;;;;;;;;;;;;18.77;35.80;97380.44;10515507;28;1952;-53
2023/12/18 03:59:50;;;;;;;;;;;;;;;18.74;35.88;97380.88;10493937;28;2087;-54
2023/12/18 04:04:51;;;;;;;;;;;;;;;18.73;35.89;97374.03;10491671;28;1968;-53
2023/12/18 04:09:51;;;;;;;;;;;;;;;18.70;35.86;97374.47;10501138;28;1964;-52
2023/12/18 04:14:51;;;;;;;;;;;;;;;18.70;35.89;97374.47;10493638;28;2064;-55
2023/12/18 04:19:52;;;;;;;;;;;;;;;18.67;35.69;97374.88;10492464;28;2114;-52
2023/12/18 04:24:52;;;;;;;;;;;;;;;18.65;35.75;97367.22;10494476;28;1891;-54
2023/12/18 04:29:52;;;;;;;;;;;;;;;18.64;35.82;97364.84;10511720;28;2020;-54
2023/12/18 04:34:53;;;;;;;;;;;;;;;18.61;35.84;97363.44;10514161;28;2798;-50
2023/12/18 04:39:54;;;;;;;;;;;;;;;18.60;35.83;97359.25;10510503;28;1942;-55
2023/12/18 04:44:55;;;;;;;;;;;;;;;18.59;35.87;97362.06;10508433;28;6074;-53
2023/12/18 04:49:55;;;;;;;;;;;;;;;18.58;35.94;97357.84;10501554;28;3198;-53
2023/12/18 04:54:55;;;;;;;;;;;;;;;18.56;35.71;97347.56;10505133;28;2162;-51
2023/12/18 04:59:55;;;;;;;;;;;;;;;18.54;35.75;97347.00;10509034;28;2059;-53
2023/12/18 05:04:56;;;;;;;;;;;;;;;18.54;35.57;97354.06;10508730;28;1901;-53
2023/12/18 05:09:56;;;;;;;;;;;;;;;18.59;35.76;97357.63;10511232;28;1972;-55
2023/12/18 05:14:56;;;;;;;;;;;;;;;18.63;35.84;97352.72;10513913;28;1975;-53
2023/12/18 05:19:56;;;;;;;;;;;;;;;18.71;36.33;97362.13;10510586;28;1941;-52
2023/12/18 05:24:57;;;;;;;;;;;;;;;18.79;36.26;97362.63;10509741;28;1912;-48
2023/12/18 05:29:57;;;;;;;;;;;;;;;18.85;36.42;97364.34;10514236;28;2347;-50
2023/12/18 05:34:57;;;;;;;;;;;;;;;18.92;36.31;97356.38;10506744;28;2330;-52
2023/12/18 05:39:57;;;;;;;;;;;;;;;18.99;36.17;97357.88;10509434;28;1898;-54
2023/12/18 05:44:58;;;;;;;;;;;;;;;19.02;36.12;97344.28;10512693;28;5029;-53
2023/12/18 05:49:58;;;;;;;;;;;;;;;19.07;35.85;97354.94;10513236;28;3283;-54
2023/12/18 05:54:58;;;;;;;;;;;;;;;19.12;36.37;97359.53;10513313;28;1964;-50
2023/12/18 05:59:58;;;;;;;;;;;;;;;19.18;36.27;97359.41;10518695;28;1869;-52
2023/12/18 06:04:59;;;;;;;;;;;;;;;19.22;36.28;97360.56;10514844;28;1940;-53
2023/12/18 06:09:59;;;;;;;;;;;;;;;19.23;35.85;97354.28;10515564;28;1973;-52
2023/12/18 06:14:59;;;;;;;;;;;;;;;19.29;36.33;97363.06;10514896;28;2005;-55
2023/12/18 06:20:00;;;;;;;;;;;;;;;19.29;36.03;97350.72;10500776;28;2097;-53
2023/12/18 06:25:02;;;;;;;;;;;;;;;19.31;35.85;97353.94;10522569;28;1830;-52
2023/12/18 06:30:02;;;;;;;;;;;;;;;19.32;35.88;97355.56;10497511;28;2394;-54
2023/12/18 06:35:03;;;;;;;;;;;;;;;19.34;35.96;97348.28;10517200;28;1953;-49
2023/12/18 06:40:03;;;;;;;;;;;;;;;19.36;35.78;97343.59;10500658;28;2063;-50
2023/12/18 06:45:04;;;;;;;;;;;;;;;19.39;35.48;97347.59;10517668;28;4989;-52
2023/12/18 06:50:05;;;;;;;;;;;;;;;19.39;35.72;97348.38;10519754;28;3115;-54
2023/12/18 06:55:05;;;;;;;;;;;;;;;19.39;36.03;97344.97;10514938;28;2068;-54
2023/12/18 07:00:06;;;;;;;;;;;;;;;19.42;35.88;97336.59;10510169;28;1980;-53
2023/12/18 07:05:06;;;;;;;;;;;;;;;19.44;35.84;97339.81;10508358;28;2060;-55
2023/12/18 07:10:07;;;;;;;;;;;;;;;19.47;36.00;97349.88;10514311;28;1954;-51
2023/12/18 07:15:07;;;;;;;;;;;;;;;19.54;36.77;97355.03;10512807;28;1972;-53
2023/12/18 07:20:08;;;;;;;;;;;;;;;19.61;36.82;97350.44;10516963;28;2394;-53
2023/12/18 07:25:11;;;;;;;;;;;;;;;19.64;37.52;97350.00;10515078;28;2298;-52
2023/12/18 07:30:12;;;;;;;;;;;;;;;19.68;37.79;97351.16;10519308;28;2009;-50
2023/12/18 07:35:12;;;;;;;;;;;;;;;19.73;37.69;97351.25;10487935;28;1946;-53
2023/12/18 07:40:12;;;;;;;;;;;;;;;19.75;37.65;97351.81;10512418;28;1866;-49
2023/12/18 07:45:13;;;;;;;;;;;;;;;19.75;38.04;97357.06;10513346;28;6070;-54
2023/12/18 07:50:16;;;;;;;;;;;;;;;19.78;37.53;97362.72;10510395;28;3277;-53
2023/12/18 07:55:16;;;;;;;;;;;;;;;19.81;37.36;97364.06;10512563;28;2040;-53
2023/12/18 08:00:17;;;;;;;;;;;;;;;19.82;37.48;97357.78;10493597;28;1885;-53
2023/12/18 08:05:17;;;;;;;;;;;;;;;19.85;36.86;97362.56;10511230;28;2071;-54
2023/12/18 08:10:17;;;;;;;;;;;;;;;19.87;36.95;97361.31;10511144;28;2223;-51
2023/12/18 08:15:18;;;;;;;;;;;;;;;19.88;37.31;97359.47;10497491;28;2000;-53
2023/12/18 08:20:18;;;;;;;;;;;;;;;19.88;37.57;97354.22;10499074;28;1974;-53
2023/12/18 08:25:18;;;;;;;;;;;;;;;19.90;37.31;97352.16;10514492;28;1903;-52
2023/12/18 08:30:18;;;;;;;;;;;;;;;19.92;37.09;97350.91;10516346;28;1838;-53
2023/12/18 08:35:19;;;;;;;;;;;;;;;19.94;37.27;97340.13;10509542;28;1911;-52
2023/12/18 08:40:20;;;;;;;;;;;;;;;19.97;37.04;97350.22;10508352;28;1931;-56
2023/12/18 08:45:20;;;;;;;;;;;;;;;19.98;37.05;97351.81;10509268;28;5262;-52
2023/12/18 08:50:20;;;;;;;;;;;;;;;20.00;37.42;97360.28;10505102;28;3227;-53
2023/12/18 08:55:21;;;;;;;;;;;;;;;20.01;37.53;97360.03;10509151;28;1983;-48
2023/12/18 09:00:22;;;;;;;;;;;;;;;20.06;36.94;97367.25;10518157;28;1947;-51
2023/12/18 09:05:22;;;;;;;;;;;;;;;20.08;37.20;97368.63;10509722;28;1948;-52
2023/12/18 09:10:22;;;;;;;;;;;;;;;20.09;36.86;97358.91;10508286;28;2060;-53
2023/12/18 09:15:23;;;;;;;;;;;;;;;20.11;37.02;97372.63;10507451;28;2052;-52
2023/12/18 09:20:23;;;;;;;;;;;;;;;20.12;37.34;97367.13;10501416;28;2018;-51
2023/12/18 09:25:23;;;;;;;;;;;;;;;20.15;37.30;97363.22;10508338;28;1928;-49
2023/12/18 09:30:23;;;;;;;;;;;;;;;20.15;36.89;97366.63;10510112;28;1979;-53
2023/12/18 09:35:24;;;;;;;;;;;;;;;20.16;37.25;97359.56;10515986;28;1994;-53
2023/12/18 09:40:24;;;;;;;;;;;;;;;20.19;36.91;97357.31;10524522;28;2409;-53
2023/12/18 09:45:25;;;;;;;;;;;;;;;20.21;36.85;97349.16;10504153;28;5188;-53
2023/12/18 09:50:25;;;;;;;;;;;;;;;20.23;36.66;97340.00;10495955;28;1896;-54
2023/12/18 09:55:25;;;;;;;;;;;;;;;20.25;36.77;97352.94;10521699;28;1990;-53
2023/12/18 10:00:26;;;;;;;;;;;;;;;20.26;37.02;97350.06;10512266;28;2040;-50
2023/12/18 10:05:26;;;;;;;;;;;;;;;20.28;36.80;97341.91;10512073;28;1966;-51
2023/12/18 10:10:26;;;;;;;;;;;;;;;20.32;36.81;97348.31;10509426;28;2007;-53
2023/12/18 10:15:27;;;;;;;;;;;;;;;20.32;36.45;97344.91;10518386;28;1966;-53
2023/12/18 10:20:27;;;;;;;;;;;;;;;20.36;36.42;97343.41;10497292;28;1985;-52
2023/12/18 10:25:27;;;;;;;;;;;;;;;20.37;36.25;97340.53;10511082;28;1969;-53
2023/12/18 10:30:29;;;;;;;;;;;;;;;20.40;36.53;97329.53;10521648;28;2005;-54
2023/12/18 10:35:29;;;;;;;;;;;;;;;20.40;36.56;97323.47;10499023;28;2325;-55
2023/12/18 10:40:30;;;;;;;;;;;;;;;20.40;36.45;97324.28;10503614;28;1921;-53
2023/12/18 10:45:30;;;;;;;;;;;;;;;20.41;36.56;97317.97;10522795;28;5226;-54
2023/12/18 10:50:31;;;;;;;;;;;;;;;20.41;36.60;97320.59;10525976;28;1865;-49
2023/12/18 10:55:31;;;;;;;;;;;;;;;20.45;36.56;97313.00;10504417;28;2052;-53
2023/12/18 11:00:31;;;;;;;;;;;;;;;20.46;37.16;97307.53;10513225;28;2044;-54
2023/12/18 11:05:32;;;;;;;;;;;;;;;20.50;37.50;97300.75;10521537;28;1992;-55
2023/12/18 11:10:32;;;;;;;;;;;;;;;20.53;37.34;97294.19;10511179;28;2217;-51
2023/12/18 11:15:41;;;;;;;;;;;;;;;20.54;37.21;97291.34;10520109;28;1890;-53
2023/12/18 11:20:41;;;;;;;;;;;;;;;20.57;37.23;97282.16;10493923;28;1889;-52
2023/12/18 11:25:43;;;;;;;;;;;;;;;20.58;37.03;97268.75;10516858;28;2328;-54
2023/12/18 11:30:44;;;;;;;;;;;;;;;20.59;37.39;97259.81;10521352;28;1883;-54
2023/12/18 11:35:45;;;;;;;;;;;;;;;20.61;37.52;97256.97;10515929;28;1972;-54
2023/12/18 11:40:46;;;;;;;;;;;;;;;20.62;37.34;97248.81;10521254;28;4970;-52
2023/12/18 11:45:46;;;;;;;;;;;;;;;20.63;37.26;97231.94;10519758;28;1842;-53
2023/12/18 11:50:48;;;;;;;;;;;;;;;20.63;37.07;97226.69;10517777;28;1956;-51
2023/12/18 11:55:50;;;;;;;;;;;;;;;20.65;37.13;97214.06;10499734;28;2047;-52
2023/12/18 12:00:51;;;;;;;;;;;;;;;20.66;37.05;97207.78;10523419;28;1856;-51
2023/12/18 12:05:51;;;;;;;;;;;;;;;20.69;36.90;97198.59;10493235;28;2318;-53
2023/12/18 12:10:53;;;;;;;;;;;;;;;20.70;36.76;97197.53;10513674;28;1972;-52
2023/12/18 12:15:57;;;;;;;;;;;;;;;20.71;36.96;97192.03;10497931;28;1953;-52
2023/12/18 12:20:58;;;;;;;;;;;;;;;20.72;36.52;97185.72;10516880;28;1968;-51
2023/12/18 12:25:58;;;;;;;;;;;;;;;20.73;36.46;97179.41;10519115;28;1947;-52
2023/12/18 12:30:59;;;;;;;;;;;;;;;20.74;36.71;97177.56;10492427;28;1968;-49
2023/12/18 12:35:59;;;;;;;;;;;;;;;20.76;37.13;97176.31;10518169;28;1979;-53
2023/12/18 12:40:59;;;;;;;;;;;;;;;20.79;36.78;97175.03;10512694;28;1862;-54
2023/12/18 12:45:59;;;;;;;;;;;;;;;20.79;36.77;97165.28;10501526;28;1985;-54
2023/12/18 12:51:00;;;;;;;;;;;;;;;20.82;36.78;97158.72;10516342;28;2270;-52
2023/12/18 12:56:00;;;;;;;;;;;;;;;20.82;36.92;97162.16;10490915;28;1971;-54
2023/12/18 13:01:01;;;;;;;;;;;;;;;20.86;36.75;97155.38;10497877;28;1825;-50
2023/12/18 13:06:02;;;;;;;;;;;;;;;20.87;36.60;97156.19;10515303;28;1841;-54
2023/12/18 13:11:04;;;;;;;;;;;;;;;20.88;36.58;97152.50;10514034;28;2048;-53
2023/12/18 13:16:05;;;;;;;;;;;;;;;20.85;37.01;97153.78;10511502;28;2072;-49
2023/12/18 13:21:06;;;;;;;;;;;;;;;20.87;36.68;97150.91;10497341;28;2004;-53
2023/12/18 13:26:06;;;;;;;;;;;;;;;20.85;36.98;97147.72;10512454;28;1591;-49
2023/12/18 13:31:06;;;;;;;;;;;;;;;20.87;36.86;97145.63;10497928;28;1993;-51
2023/12/18 13:36:07;;;;;;;;;;;;;;;20.83;37.03;97141.88;10513024;28;2712;-53
2023/12/18 13:41:08;;;;;;;;;;;;;;;20.78;37.00;97132.06;10516744;28;5072;-55
2023/12/18 13:46:08;;;;;;;;;;;;;;;20.75;37.21;97132.53;10516229;28;1933;-51
2023/12/18 13:51:09;;;;;;;;;;;;;;;20.74;37.10;97132.78;10514958;28;1900;-52
2023/12/18 13:56:09;;;;;;;;;;;;;;;20.70;37.23;97129.84;10488842;28;1972;-53
2023/12/18 14:01:10;;;;;;;;;;;;;;;20.66;37.33;97135.81;10494751;28;1894;-54
2023/12/18 14:06:10;;;;;;;;;;;;;;;20.62;37.05;97121.53;10486535;28;1942;-53
2023/12/18 14:11:10;;;;;;;;;;;;;;;20.54;37.20;97124.56;10510334;28;1876;-54
2023/12/18 14:16:10;;;;;;;;;;;;;;;20.50;37.43;97126.91;10507287;28;2652;-57
2023/12/18 14:21:11;;;;;;;;;;;;;;;20.43;37.32;97123.63;10491180;28;2458;-52
2023/12/18 14:26:11;;;;;;;;;;;;;;;20.40;37.35;97115.41;10525682;28;1892;-53
2023/12/18 14:31:11;;;;;;;;;;;;;;;20.36;37.57;97115.06;10518578;28;1868;-51
2023/12/18 14:36:11;;;;;;;;;;;;;;;20.32;37.44;97121.84;10493693;28;2052;-51
2023/12/18 14:41:12;;;;;;;;;;;;;;;20.33;37.17;97134.00;10518771;28;5216;-53
2023/12/18 14:46:12;;;;;;;;;;;;;;;20.35;37.40;97131.09;10519069;28;1954;-54
2023/12/18 14:51:12;;;;;;;;;;;;;;;20.36;37.16;97127.47;10499871;28;1857;-53
2023/12/18 14:56:12;;;;;;;;;;;;;;;20.39;37.02;97126.97;10521964;28;2537;-53
2023/12/18 15:01:13;;;;;;;;;;;;;;;20.41;36.90;97125.69;10516861;28;1872;-53
2023/12/18 15:06:13;;;;;;;;;;;;;;;20.45;36.85;97121.53;10499768;28;1850;-52
2023/12/18 15:11:14;;;;;;;;;;;;;;;20.47;37.06;97124.72;10513760;28;1860;-52
2023/12/18 15:16:17;;;;;;;;;;;;;;;20.51;36.78;97120.59;10516549;28;1918;-51
2023/12/18 15:21:20;;;;;;;;;;;;;;;20.54;36.69;97117.47;10527843;28;2057;-53
2023/12/18 15:26:20;;;;;;;;;;;;;;;20.57;36.54;97113.53;10516787;28;1939;-53
2023/12/18 15:31:21;;;;;;;;;;;;;;;20.60;36.62;97113.06;10514352;28;1923;-55
2023/12/18 15:36:21;;;;;;;;;;;;;;;20.61;36.91;97107.56;10516896;28;1973;-54
2023/12/18 15:41:21;;;;;;;;;;;;;;;20.62;36.62;97105.72;10515168;28;4820;-50
2023/12/18 15:46:21;;;;;;;;;;;;;;;20.63;36.56;97105.47;10507491;28;2261;-51
2023/12/18 15:51:22;;;;;;;;;;;;;;;20.64;36.35;97099.19;10515238;28;1878;-53
2023/12/18 15:56:22;;;;;;;;;;;;;;;20.65;36.40;97100.00;10517719;28;2065;-52
2023/12/18 16:01:23;;;;;;;;;;;;;;;20.66;36.50;97096.31;10488840;28;1929;-50
2023/12/18 16:06:23;;;;;;;;;;;;;;;20.65;36.76;97090.22;10515296;28;2114;-55
2023/12/18 16:11:24;;;;;;;;;;;;;;;20.66;36.42;97093.66;10512480;28;1924;-55
2023/12/18 16:16:24;;;;;;;;;;;;;;;20.65;36.67;97100.78;10510495;28;1998;-53
2023/12/18 16:21:24;;;;;;;;;;;;;;;20.64;36.38;97088.66;10509838;28;2139;-53
2023/12/18 16:26:24;;;;;;;;;;;;;;;20.66;36.13;97086.56;10511404;28;2084;-52
2023/12/18 16:31:25;;;;;;;;;;;;;;;20.67;36.35;97072.34;10490497;28;2202;-51
2023/12/18 16:36:27;;;;;;;;;;;;;;;20.65;36.19;97076.28;10512900;28;2020;-55
2023/12/18 16:41:30;;;;;;;;;;;;;;;20.66;36.02;97069.97;10489155;28;5007;-54
2023/12/18 16:46:31;;;;;;;;;;;;;;;20.63;36.59;97071.22;10493283;28;2866;-53
2023/12/18 16:51:31;;;;;;;;;;;;;;;20.65;36.21;97073.66;10493699;28;2064;-54
2023/12/18 16:56:31;;;;;;;;;;;;;;;20.64;36.51;97077.31;10506606;28;2161;-55
2023/12/18 17:01:31;;;;;;;;;;;;;;;20.62;36.56;97074.13;10516539;28;1900;-52
2023/12/18 17:06:32;;;;;;;;;;;;;;;20.63;36.37;97065.19;10514656;28;1901;-54
2023/12/18 17:11:32;;;;;;;;;;;;;;;20.62;36.35;97061.75;10506431;28;2056;-50
2023/12/18 17:16:33;;;;;;;;;;;;;;;20.62;36.23;97064.38;10500028;28;2052;-53
2023/12/18 17:21:33;;;;;;;;;;;;;;;20.63;36.41;97065.19;10506026;28;2138;-55
2023/12/18 17:26:34;;;;;;;;;;;;;;;20.63;36.18;97062.56;10512028;28;2013;-54
2023/12/18 17:31:34;;;;;;;;;;;;;;;20.69;36.20;97045.78;10502839;28;2296;-54
2023/12/18 17:36:34;;;;;;;;;;;;;;;20.86;35.87;97038.59;10514282;28;1901;-56
2023/12/18 17:41:35;;;;;;;;;;;;;;;20.99;35.87;97033.78;10491554;28;5054;-53
2023/12/18 17:46:35;;;;;;;;;;;;;;;21.11;35.02;97032.88;10526194;28;3229;-54
2023/12/18 17:51:35;;;;;;;;;;;;;;;21.26;34.43;97025.16;10522929;28;1491;-55
2023/12/18 17:56:36;;;;;;;;;;;;;;;21.28;34.83;97023.06;10513436;28;1930;-52
2023/12/18 18:01:36;;;;;;;;;;;;;;;21.33;34.74;97012.56;10511956;28;1451;-54
2023/12/18 18:06:37;;;;;;;;;;;;;;;21.37;34.51;97009.19;10524440;28;1393;-51
2023/12/18 18:11:37;;;;;;;;;;;;;;;21.37;34.94;97016.31;10526428;28;1522;-52
2023/12/18 18:16:37;;;;;;;;;;;;;;;21.34;35.07;97019.44;10521772;28;1956;-54
2023/12/18 18:21:38;;;;;;;;;;;;;;;21.29;35.16;97019.41;10522134;28;1695;-53
2023/12/18 18:26:38;;;;;;;;;;;;;;;21.28;35.02;97015.16;10508016;28;1495;-56
2023/12/18 18:31:40;;;;;;;;;;;;;;;21.31;34.90;97018.09;10518313;28;2589;-55
2023/12/18 18:36:43;;;;;;;;;;;;;;;21.34;34.72;97007.06;10519594;28;1898;-54
2023/12/18 18:41:44;;;;;;;;;;;;;;;21.38;34.82;97013.41;10518593;28;1572;-54
2023/12/18 18:46:48;;;;;;;;;;;;;;;21.40;34.43;97003.41;10520041;28;3318;-53
2023/12/18 18:51:49;;;;;;;;;;;;;;;21.39;34.07;97006.31;10520109;28;1622;-53
2023/12/18 18:56:49;;;;;;;;;;;;;;;21.38;34.48;96997.59;10494786;28;2015;-55
2023/12/18 19:01:49;;;;;;;;;;;;;;;21.34;34.22;96995.69;10514296;28;1464;-54
2023/12/18 19:06:50;;;;;;;;;;;;;;;21.33;34.35;96999.41;10522817;28;1467;-56
2023/12/18 19:11:50;;;;;;;;;;;;;;;21.34;34.27;97006.25;10523006;28;1459;-55
2023/12/18 19:16:51;;;;;;;;;;;;;;;21.31;34.60;96989.06;10513988;28;1961;-53
2023/12/18 19:21:51;;;;;;;;;;;;;;;21.27;34.76;96980.06;10517717;28;1797;-55
2023/12/18 19:26:51;;;;;;;;;;;;;;;21.23;34.55;96986.06;10522350;28;1497;-53
2023/12/18 19:31:51;;;;;;;;;;;;;;;21.24;34.29;96985.84;10518713;28;1463;-54
2023/12/18 19:36:52;;;;;;;;;;;;;;;21.25;34.71;96981.34;10522558;28;2039;-55
2023/12/18 19:41:52;;;;;;;;;;;;;;;21.24;34.29;96970.03;10517388;28;5030;-54
2023/12/18 19:46:52;;;;;;;;;;;;;;;21.22;34.30;96976.59;10495080;28;3190;-55
2023/12/18 19:51:53;;;;;;;;;;;;;;;21.25;34.53;96966.31;10513005;28;1561;-53
2023/12/18 19:56:53;;;;;;;;;;;;;;;21.26;34.39;96959.22;10517745;28;2033;-54
2023/12/18 20:01:53;;;;;;;;;;;;;;;21.23;34.71;96965.78;10498701;28;1678;-51
2023/12/18 20:06:54;;;;;;;;;;;;;;;21.24;34.44;96961.31;10503789;28;1735;-53
2023/12/18 20:11:54;;;;;;;;;;;;;;;21.23;34.83;96952.59;10520923;28;1750;-52
2023/12/18 20:16:54;;;;;;;;;;;;;;;21.26;34.55;96953.94;10524496;28;1981;-53
2023/12/18 20:21:54;;;;;;;;;;;;;;;21.25;34.91;96949.69;10519799;28;2406;-54
2023/12/18 20:26:55;;;;;;;;;;;;;;;21.23;34.61;96952.59;10516427;28;1956;-54
2023/12/18 20:31:55;;;;;;;;;;;;;;;21.22;34.97;96947.56;10515296;28;2095;-55
2023/12/18 20:36:55;;;;;;;;;;;;;;;21.17;35.06;96940.41;10514185;28;1910;-54
2023/12/18 20:41:56;;;;;;;;;;;;;;;21.16;35.33;96935.38;10514426;28;4998;-55
2023/12/18 20:46:57;;;;;;;;;;;;;;;21.08;36.05;96920.03;10503034;28;2965;-53
2023/12/18 20:51:57;;;;;;;;;;;;;;;21.01;35.80;96939.44;10509440;28;1960;-53
2023/12/18 20:56:57;;;;;;;;;;;;;;;20.95;35.47;96927.25;10511129;28;2072;-54
2023/12/18 21:01:58;;;;;;;;;;;;;;;20.88;36.08;96929.25;10510549;28;1897;-53
2023/12/18 21:06:58;;;;;;;;;;;;;;;20.83;35.91;96921.31;10513323;28;1889;-54
2023/12/18 21:11:58;;;;;;;;;;;;;;;20.79;35.43;96929.97;10512185;28;1997;-54
2023/12/18 21:16:59;;;;;;;;;;;;;;;20.77;35.91;96917.00;10504858;28;2072;-54
2023/12/18 21:21:59;;;;;;;;;;;;;;;20.73;36.02;96901.97;10475049;28;2338;-54
2023/12/18 21:26:59;;;;;;;;;;;;;;;20.71;35.68;96906.69;10489147;28;1973;-53
2023/12/18 21:31:59;;;;;;;;;;;;;;;20.67;35.71;96914.25;10512086;28;2076;-50
2023/12/18 21:37:00;;;;;;;;;;;;;;;20.64;35.83;96908.69;10511296;28;2072;-51
2023/12/18 21:42:02;;;;;;;;;;;;;;;20.60;35.79;96892.59;10506964;28;5068;-54
2023/12/18 21:47:02;;;;;;;;;;;;;;;20.58;36.13;96891.25;10506051;28;3134;-51
2023/12/18 21:52:02;;;;;;;;;;;;;;;20.54;35.83;96887.50;10506237;28;2151;-53
2023/12/18 21:57:03;;;;;;;;;;;;;;;20.50;35.91;96881.94;10509092;28;1969;-52
2023/12/18 22:02:04;;;;;;;;;;;;;;;20.47;35.86;96879.78;10499862;28;1925;-55
2023/12/18 22:07:04;;;;;;;;;;;;;;;20.47;35.74;96876.34;10506411;28;1885;-55
2023/12/18 22:12:06;;;;;;;;;;;;;;;20.41;35.83;96872.88;10502489;28;2312;-54
2023/12/18 22:17:06;;;;;;;;;;;;;;;20.40;35.49;96875.75;10504876;28;2579;-53
2023/12/18 22:22:06;;;;;;;;;;;;;;;20.37;35.55;96870.97;10505062;28;2045;-52
2023/12/18 22:27:06;;;;;;;;;;;;;;;20.34;35.68;96866.97;10510960;28;2012;-55
2023/12/18 22:32:07;;;;;;;;;;;;;;;20.31;35.70;96877.19;10505968;28;1893;-51
2023/12/18 22:37:07;;;;;;;;;;;;;;;20.28;35.63;96889.00;10506902;28;2071;-53
2023/12/18 22:42:08;;;;;;;;;;;;;;;20.25;35.80;96900.84;10511637;28;5072;-55
2023/12/18 22:47:08;;;;;;;;;;;;;;;20.22;35.54;96911.84;10509827;28;3412;-54
2023/12/18 22:52:11;;;;;;;;;;;;;;;20.20;35.76;96918.41;10513872;28;1993;-54
2023/12/18 22:57:11;;;;;;;;;;;;;;;20.16;36.21;96914.63;10508148;28;1938;-55
2023/12/18 23:02:11;;;;;;;;;;;;;;;20.12;35.86;96911.69;10514136;28;1931;-55
2023/12/18 23:07:12;;;;;;;;;;;;;;;20.08;36.06;96905.31;10491851;28;1908;-54
2023/12/18 23:12:12;;;;;;;;;;;;;;;20.09;35.68;96892.97;10511044;28;2047;-54
2023/12/18 23:17:12;;;;;;;;;;;;;;;20.06;35.98;96901.31;10513543;28;2253;-56
2023/12/18 23:22:13;;;;;;;;;;;;;;;20.01;36.06;96883.63;10504413;28;1945;-55
2023/12/18 23:27:13;;;;;;;;;;;;;;;20.01;35.93;96880.22;10509966;28;2051;-55
2023/12/18 23:32:14;;;;;;;;;;;;;;;19.98;35.71;96859.63;10515449;28;1869;-56
2023/12/18 23:37:14;;;;;;;;;;;;;;;19.93;36.03;96865.63;10491772;28;2285;-53
2023/12/18 23:42:14;;;;;;;;;;;;;;;19.92;35.80;96868.50;10515393;28;5046;-52
2023/12/18 23:47:14;;;;;;;;;;;;;;;19.91;35.93;96848.47;10507693;28;2928;-54
2023/12/18 23:52:15;;;;;;;;;;;;;;;19.86;35.78;96849.22;10512866;28;1887;-54
2023/12/18 23:57:15;;;;;;;;;;;;;;;19.84;36.01;96845.25;10492274;28;1990;-54
